Terminal Aerodrome Forecast
Issued by NWS

Home | Current Version | Previous Version | Text Only | Print | Product List | Glossary On
Versions: 1 2 3 4 5 6 7 8 9 10 11 12 13 14 15 16 17 18 19 20
000
FTUS44 KMAF 070803 AAA
TAFHOB
TAF AMD
KHOB 070803Z 0708/0806 VRB03KT P6SM BKN250
     FM070900 14004KT P6SM BKN008
     FM071700 27011G19KT P6SM OVC120
     FM072300 35010KT P6SM OVC120
     FM080200 04015KT P6SM BKN012=

USA.gov is the U.S. government's official web portal to all federal, state and local government web resources and services.